Terminal Aerodrome Forecast
Issued by NWS Charleston, SC

Home | Current Version | Previous Version | Text Only | Print | Product List | Glossary On
Versions: 1 2 3 4 5 6 7 8 9 10 11 12 13 14 15 16 17 18 19 20 21 22 23 24 25 26
000
FTUS42 KCHS 200700 AAB
TAFCHS
TAF AMD
KCHS 200738Z 2008/2106 36012KT P6SM -RA OVC008
      TEMPO 2008/2012 5SM -DZ
     FM201500 02017G25KT P6SM VCSH SCT009 OVC015
     FM210000 36011KT P6SM BKN025=

USA.gov is the U.S. government's official web portal to all federal, state and local government web resources and services.